Flight Number: AVA1960 Duration: 3:00
Departure: Rovaniemi Airport (EFRO) at 22:00 Distance: 1125.19 Nm
Arrival: Frankfurt am Main (EDDF) at 01:00 Equipment: B737

Weather Information
Rovaniemi, Finland (EFRO) 66-34N 025-50E 201M Oct 22, 2020 - 07:50 AM EDT / 2020.10.22 1150 UTC
Wind: from the ENE (070 degrees) at 10 MPH (9 KT):0
Visibility: 2 mile(s):0
Sky conditions: mostly cloudy Weather: light snow Temperature: 30 F (-1 C)
Windchill: 21 F (-6 C):1 Dew Point: 28 F (-2 C) Relative Humidity: 92% Pressure (altimeter): 29.44 in. Hg (0997 hPa)
ob: EFRO 221150Z 07009KT 4500 -SN FEW003 SCT010 BKN030 M01/M02 Q0997 cycle: 12
Sunrise: 05:49 Sunset: 14:12 (UTC)

Frankfurt / M-Flughafen, Germany (EDDF) 50-03N 008-36E 113M Oct 22, 2020 - 07:50 AM EDT / 2020.10.22 1150 UTC
Wind: from the S (190 degrees) at 10 MPH (9 KT) (direction variable):0
Visibility: greater than 7 mile(s):0
Sky conditions: mostly clear Temperature: 68 F (20 C) Dew Point: 51 F (11 C) Relative Humidity: 56% Pressure (altimeter): 29.94 in. Hg (1014 hPa)
ob: EDDF 221150Z 19009KT 160V220 9999 FEW036 20/11 Q1014 NOSIG cycle: 12
Sunrise: 06:04 Sunset: 16:15 (UTC)

TAF:2020/10/22 12:27 TAF TAF EDDF 221100Z 2212/2318 20008KT CAVOK TEMPO 2218/2224 SHRA BKN030CB BECMG 2222/2224 BKN030 TEMPO 2300/2315 RA BKN014 PROB40 TEMPO 2315/2318 SHRA BKN025CB

This route has never been flown.

Route map